Time;durP1;ratioP1;P1;durP2;ratioP2;P2;SDS_P1;SDS_P2;PMS_P1;PMS_P2;Temp;Humidity;BMP_temperature;BMP_pressure;BME280_temperature;BME280_humidity;BME280_pressure;Samples;Min_cycle;Max_cycle;Signal;HPM_P1;HPM_P2
2021/08/27 00:01:51;;;;;;;1.43;0.90;;;15.60;99.80;;;;;;4937122;29;20539;-74
2021/08/27 00:04:18;;;;;;;3.10;0.77;;;15.70;99.00;;;;;;4939445;29;20186;-70
2021/08/27 00:06:45;;;;;;;1.10;0.80;;;15.70;99.10;;;;;;4953772;28;20187;-75
2021/08/27 00:09:12;;;;;;;2.33;1.00;;;15.80;99.10;;;;;;4948469;28;20651;-72
2021/08/27 00:11:40;;;;;;;2.17;0.70;;;15.90;98.70;;;;;;4947238;28;20213;-71
2021/08/27 00:14:07;;;;;;;1.57;0.70;;;16.00;98.60;;;;;;4937290;29;20180;-74
2021/08/27 00:16:35;;;;;;;1.87;0.77;;;16.00;98.80;;;;;;4952961;28;20195;-73
2021/08/27 00:19:02;;;;;;;1.87;0.93;;;16.10;98.20;;;;;;4953274;28;20180;-68
2021/08/27 00:21:29;;;;;;;2.40;0.93;;;16.20;98.40;;;;;;4953260;28;20683;-74
2021/08/27 00:23:57;;;;;;;1.10;0.80;;;16.20;98.00;;;;;;4947586;29;20176;-69
2021/08/27 00:26:24;;;;;;;4.63;0.73;;;16.30;97.70;;;;;;4948637;28;20183;-68
2021/08/27 00:28:51;;;;;;;2.33;0.80;;;16.40;97.50;;;;;;4946232;28;20280;-71
2021/08/27 00:31:19;;;;;;;1.73;0.70;;;16.50;98.00;;;;;;4950464;28;20568;-69
2021/08/27 00:33:46;;;;;;;0.70;0.70;;;16.70;97.20;;;;;;4944809;28;20189;-72
2021/08/27 00:36:14;;;;;;;2.23;1.17;;;16.80;97.10;;;;;;4949847;28;20550;-72
2021/08/27 00:38:41;;;;;;;2.10;0.80;;;16.90;97.00;;;;;;4953834;28;20550;-69
2021/08/27 00:41:08;;;;;;;1.00;0.80;;;16.90;96.10;;;;;;4954159;28;20263;-73
2021/08/27 00:43:36;;;;;;;0.70;0.70;;;16.90;96.50;;;;;;4954034;29;20191;-66
2021/08/27 00:46:03;;;;;;;0.80;0.73;;;17.10;95.80;;;;;;4951835;28;20559;-70
2021/08/27 00:48:31;;;;;;;1.23;0.70;;;17.20;95.50;;;;;;4945537;28;20196;-69
2021/08/27 00:50:58;;;;;;;3.10;1.00;;;17.20;95.60;;;;;;4946387;28;20188;-70
2021/08/27 00:53:25;;;;;;;1.93;1.00;;;17.30;95.10;;;;;;4948446;28;20634;-71
2021/08/27 00:55:53;;;;;;;0.80;0.80;;;17.50;94.60;;;;;;4954752;28;20182;-70
2021/08/27 00:58:21;;;;;;;3.70;0.80;;;17.50;94.60;;;;;;4954633;28;20276;-70
2021/08/27 01:00:49;;;;;;;1.87;0.80;;;17.40;94.10;;;;;;4953843;29;20219;-70
2021/08/27 01:03:20;;;;;;;1.10;0.70;;;17.50;94.40;;;;;;4954114;28;20187;-67
2021/08/27 01:06:21;;;;;;;0.80;0.50;;;17.60;93.70;;;;;;4948829;28;20225;-68
2021/08/27 01:08:59;;;;;;;1.67;0.80;;;17.60;92.80;;;;;;4935401;29;20238;-68
2021/08/27 01:11:35;;;;;;;2.60;0.90;;;17.70;92.80;;;;;;4946428;28;20342;-69
2021/08/27 01:14:09;;;;;;;1.30;0.70;;;17.80;92.80;;;;;;4949955;28;20190;-69
2021/08/27 01:17:02;;;;;;;1.80;0.73;;;18.00;92.70;;;;;;4943472;28;20205;-65
2021/08/27 01:19:47;;;;;;;1.50;0.57;;;18.20;91.80;;;;;;4939704;28;20222;-73
2021/08/27 01:22:32;;;;;;;1.83;0.80;;;18.30;91.80;;;;;;4937745;28;20188;-69
2021/08/27 01:25:01;;;;;;;0.97;0.70;;;18.30;91.40;;;;;;4943702;28;20183;-67
2021/08/27 01:27:28;;;;;;;3.17;0.90;;;18.30;91.10;;;;;;4943057;28;20677;-68
2021/08/27 01:30:08;;;;;;;1.13;0.93;;;18.30;90.90;;;;;;4951058;29;20511;-70
2021/08/27 01:32:55;;;;;;;1.00;0.80;;;18.50;91.20;;;;;;4950331;28;20217;-73
2021/08/27 01:35:25;;;;;;;2.40;0.70;;;18.60;91.30;;;;;;4953473;28;20657;-72
2021/08/27 01:37:55;;;;;;;1.90;0.80;;;18.60;90.10;;;;;;4942872;28;20243;-71
2021/08/27 01:40:23;;;;;;;1.80;0.60;;;18.80;90.10;;;;;;4944689;28;20238;-72
2021/08/27 01:42:52;;;;;;;2.77;0.90;;;19.10;88.50;;;;;;4939575;28;20250;-73
2021/08/27 01:45:21;;;;;;;1.73;0.83;;;19.10;87.30;;;;;;4942641;28;20199;-76
2021/08/27 01:47:48;;;;;;;2.33;0.60;;;19.30;86.00;;;;;;4951740;28;20202;-70
2021/08/27 01:50:16;;;;;;;1.33;0.90;;;19.30;85.30;;;;;;4947039;28;20191;-73
2021/08/27 01:52:44;;;;;;;0.70;0.60;;;19.10;82.00;;;;;;4953856;29;20247;-71
2021/08/27 01:55:14;;;;;;;1.27;0.60;;;19.20;81.20;;;;;;4955314;28;20692;-70
2021/08/27 01:57:44;;;;;;;2.20;0.70;;;19.50;80.90;;;;;;4957086;28;20187;-71
2021/08/27 02:00:12;;;;;;;0.90;0.60;;;19.60;80.20;;;;;;4951006;28;20211;-69
2021/08/27 02:02:41;;;;;;;0.87;0.70;;;19.80;79.50;;;;;;4939788;28;20295;-73
2021/08/27 02:05:09;;;;;;;0.90;0.70;;;20.00;77.20;;;;;;4949647;28;20670;-71
2021/08/27 02:07:37;;;;;;;2.07;0.60;;;19.90;75.50;;;;;;4968095;28;20183;-70
2021/08/27 02:10:06;;;;;;;0.57;0.50;;;20.00;75.30;;;;;;4971026;28;20171;-70
2021/08/27 02:12:33;;;;;;;1.37;0.50;;;20.20;75.00;;;;;;4955973;28;20194;-70
2021/08/27 02:15:02;;;;;;;2.63;0.63;;;20.40;75.70;;;;;;4952569;28;20292;-69
2021/08/27 02:17:30;;;;;;;3.47;0.60;;;20.60;73.20;;;;;;4954144;28;20207;-74
2021/08/27 02:19:59;;;;;;;1.47;0.60;;;20.20;75.30;;;;;;4947337;28;20223;-68
2021/08/27 02:22:31;;;;;;;2.57;0.63;;;20.50;75.50;;;;;;4948485;28;20606;-69
2021/08/27 02:25:06;;;;;;;10.30;0.83;;;20.40;74.30;;;;;;4946586;28;20317;-68
2021/08/27 02:27:35;;;;;;;1.27;0.77;;;20.10;74.40;;;;;;4945477;28;20594;-72
2021/08/27 02:30:03;;;;;;;0.87;0.60;;;19.60;75.00;;;;;;4953535;28;20186;-65
2021/08/27 02:32:31;;;;;;;2.47;0.80;;;19.10;75.90;;;;;;4942265;28;20214;-66
2021/08/27 02:35:02;;;;;;;0.90;0.60;;;19.00;77.30;;;;;;4952276;28;20179;-66
2021/08/27 02:37:33;;;;;;;2.77;1.20;;;18.70;76.80;;;;;;4951944;28;20195;-71
2021/08/27 02:40:02;;;;;;;2.63;0.70;;;18.80;77.10;;;;;;4947146;28;20776;-67
2021/08/27 02:42:31;;;;;;;1.83;0.70;;;18.80;75.70;;;;;;4944787;28;20737;-69
2021/08/27 02:45:04;;;;;;;1.90;0.90;;;18.70;76.30;;;;;;4951948;28;20260;-70
2021/08/27 02:47:31;;;;;;;0.60;0.60;;;18.60;76.90;;;;;;4945766;28;20645;-70
2021/08/27 02:49:59;;;;;;;2.83;0.70;;;18.50;76.00;;;;;;4947045;28;20551;-70
2021/08/27 02:52:35;;;;;;;0.70;0.60;;;18.50;76.10;;;;;;4946194;28;20217;-70
2021/08/27 02:55:10;;;;;;;0.63;0.53;;;18.60;74.70;;;;;;4952558;28;20182;-65
2021/08/27 02:57:53;;;;;;;0.50;0.50;;;18.60;73.20;;;;;;4944941;28;20191;-67
2021/08/27 03:00:21;;;;;;;1.10;0.73;;;18.40;70.80;;;;;;4943572;28;20685;-71
2021/08/27 03:02:49;;;;;;;2.50;0.50;;;18.40;71.70;;;;;;4949047;28;20190;-65
2021/08/27 03:05:25;;;;;;;0.43;0.40;;;18.60;69.90;;;;;;4942500;28;20684;-69
2021/08/27 03:08:03;;;;;;;6.37;0.60;;;18.90;69.30;;;;;;4940838;28;20191;-66
2021/08/27 03:10:44;;;;;;;2.10;0.70;;;19.20;67.00;;;;;;4947987;28;20230;-73
2021/08/27 03:13:17;;;;;;;0.40;0.30;;;19.30;66.60;;;;;;4949510;28;20197;-68
2021/08/27 03:15:49;;;;;;;1.00;0.40;;;19.20;66.70;;;;;;4949680;28;20198;-70
2021/08/27 03:18:44;;;;;;;3.20;0.50;;;19.20;68.40;;;;;;4946315;28;20246;-65
2021/08/27 03:21:40;;;;;;;3.00;0.50;;;19.30;67.20;;;;;;4943960;28;20223;-64
2021/08/27 03:24:36;;;;;;;0.97;0.60;;;19.00;67.40;;;;;;4946081;28;20206;-67
2021/08/27 03:27:09;;;;;;;1.20;0.60;;;18.90;67.00;;;;;;4954013;28;20191;-67
2021/08/27 03:29:41;;;;;;;0.80;0.50;;;18.90;67.00;;;;;;4950956;28;20200;-71
2021/08/27 03:32:09;;;;;;;1.07;0.60;;;18.80;66.50;;;;;;4954982;29;20579;-70
2021/08/27 03:34:41;;;;;;;0.67;0.40;;;18.90;67.50;;;;;;4954885;28;20179;-68
2021/08/27 03:37:09;;;;;;;1.77;0.47;;;19.30;66.00;;;;;;4955409;28;20207;-71
2021/08/27 03:39:39;;;;;;;1.17;0.50;;;20.20;64.30;;;;;;4953427;28;20239;-65
2021/08/27 03:42:08;;;;;;;0.83;0.50;;;21.20;63.30;;;;;;4944696;28;20670;-73
2021/08/27 03:44:37;;;;;;;7.13;0.77;;;22.20;62.50;;;;;;4946039;28;20191;-66
2021/08/27 03:47:05;;;;;;;0.50;0.50;;;22.70;61.50;;;;;;4955374;29;20175;-76
2021/08/27 03:49:35;;;;;;;3.07;0.50;;;22.30;59.90;;;;;;4954782;28;20545;-67
2021/08/27 03:52:03;;;;;;;0.70;0.40;;;22.60;59.70;;;;;;4953609;28;20278;-68
2021/08/27 03:54:30;;;;;;;1.53;0.60;;;23.70;59.20;;;;;;4952756;28;20187;-71
2021/08/27 03:57:03;;;;;;;0.50;0.50;;;23.50;57.40;;;;;;4953981;28;20190;-66
2021/08/27 03:59:32;;;;;;;0.37;0.33;;;23.50;57.90;;;;;;4953089;28;20211;-67
2021/08/27 04:02:00;;;;;;;0.93;0.50;;;23.60;58.00;;;;;;4954694;28;20668;-67
2021/08/27 04:04:27;;;;;;;0.43;0.40;;;23.40;57.70;;;;;;4954670;29;20182;-66
2021/08/27 04:07:00;;;;;;;0.77;0.50;;;22.70;56.90;;;;;;4953936;29;20257;-75
2021/08/27 04:09:30;;;;;;;0.40;0.30;;;22.00;58.30;;;;;;4954485;28;20271;-71
2021/08/27 04:11:59;;;;;;;1.73;0.40;;;21.50;58.90;;;;;;4954250;28;20187;-75
2021/08/27 04:14:27;;;;;;;0.70;0.50;;;21.50;59.80;;;;;;4955908;28;20282;-70
2021/08/27 04:16:54;;;;;;;1.07;0.43;;;21.80;59.30;;;;;;4955111;29;20190;-75
2021/08/27 04:19:22;;;;;;;2.37;0.60;;;21.30;60.10;;;;;;4954384;28;20187;-73
2021/08/27 04:21:49;;;;;;;2.33;0.50;;;20.70;62.20;;;;;;4952612;28;20662;-73
2021/08/27 04:24:17;;;;;;;1.33;0.40;;;20.20;62.50;;;;;;4954302;29;20194;-71
2021/08/27 04:26:44;;;;;;;1.23;0.40;;;20.00;63.00;;;;;;4953046;28;20187;-64
2021/08/27 04:29:13;;;;;;;0.93;0.60;;;20.10;63.00;;;;;;4953659;28;20194;-65
2021/08/27 04:31:41;;;;;;;2.97;0.50;;;20.30;63.20;;;;;;4952176;28;20215;-65
2021/08/27 04:34:08;;;;;;;3.20;0.40;;;20.10;63.00;;;;;;4947269;29;20179;-65
2021/08/27 04:36:36;;;;;;;0.60;0.60;;;20.00;63.20;;;;;;4953337;28;20216;-66
2021/08/27 04:39:04;;;;;;;1.17;0.60;;;20.10;63.10;;;;;;4953849;28;20214;-72
2021/08/27 04:41:31;;;;;;;0.50;0.50;;;20.00;63.00;;;;;;4952825;28;20243;-66
2021/08/27 04:43:59;;;;;;;0.77;0.40;;;19.60;62.50;;;;;;4954487;29;20191;-69
2021/08/27 04:46:26;;;;;;;0.77;0.60;;;19.50;63.40;;;;;;4951480;28;20238;-70
2021/08/27 04:48:53;;;;;;;0.40;0.40;;;19.40;63.10;;;;;;4957633;28;20540;-69
2021/08/27 04:51:20;;;;;;;0.83;0.40;;;19.30;63.40;;;;;;4940348;29;20187;-70
2021/08/27 04:53:48;;;;;;;1.23;0.50;;;19.30;63.70;;;;;;4950998;28;20535;-69
2021/08/27 04:56:15;;;;;;;0.53;0.50;;;19.30;63.50;;;;;;4943231;28;20197;-72
2021/08/27 04:58:42;;;;;;;0.50;0.50;;;19.20;63.10;;;;;;4951793;28;20195;-67
2021/08/27 05:01:10;;;;;;;0.30;0.30;;;19.10;63.60;;;;;;4945648;28;20238;-71
2021/08/27 05:03:37;;;;;;;0.40;0.40;;;19.10;63.20;;;;;;4952273;28;20277;-69
2021/08/27 05:06:05;;;;;;;1.27;0.40;;;19.00;62.20;;;;;;4953292;28;20240;-70
2021/08/27 05:08:32;;;;;;;1.90;0.60;;;18.90;62.80;;;;;;4960251;28;20178;-73
2021/08/27 05:11:00;;;;;;;0.70;0.50;;;19.00;62.60;;;;;;4953466;28;20209;-72
2021/08/27 05:13:27;;;;;;;1.13;0.40;;;18.90;62.50;;;;;;4947084;28;20199;-69
2021/08/27 05:15:55;;;;;;;0.53;0.50;;;18.90;63.30;;;;;;4953135;28;20189;-69
2021/08/27 05:18:22;;;;;;;3.33;0.70;;;18.90;62.90;;;;;;4944384;28;20222;-74
2021/08/27 05:20:50;;;;;;;3.00;0.87;;;18.90;71.40;;;;;;4948242;28;20230;-73
2021/08/27 05:23:17;;;;;;;5.93;1.30;;;18.70;77.00;;;;;;4959834;28;20193;-74
2021/08/27 05:25:44;;;;;;;2.50;0.90;;;18.50;79.70;;;;;;4948596;28;20191;-72
2021/08/27 05:28:12;;;;;;;6.10;1.40;;;18.30;82.50;;;;;;4953020;28;20189;-71
2021/08/27 05:30:39;;;;;;;4.27;1.00;;;18.20;84.10;;;;;;4954085;28;20828;-69
2021/08/27 05:33:07;;;;;;;2.10;0.90;;;18.10;84.80;;;;;;4956284;28;20186;-71
2021/08/27 05:35:34;;;;;;;2.00;0.87;;;17.90;86.40;;;;;;4950697;28;20188;-65
2021/08/27 05:38:02;;;;;;;5.40;1.00;;;17.80;88.00;;;;;;4953506;28;20213;-69
2021/08/27 05:40:29;;;;;;;1.93;1.00;;;17.70;90.40;;;;;;4960757;28;20545;-66
2021/08/27 05:42:56;;;;;;;3.78;1.50;;;17.70;91.30;;;;;;4957114;28;20784;-65
2021/08/27 05:45:24;;;;;;;4.47;1.53;;;17.60;91.90;;;;;;4951856;28;20198;-67
2021/08/27 05:47:51;;;;;;;3.67;1.63;;;17.50;92.80;;;;;;4952464;28;20199;-65
2021/08/27 05:50:19;;;;;;;2.63;1.00;;;17.50;93.30;;;;;;4952427;28;20190;-73
2021/08/27 05:52:46;;;;;;;3.13;1.00;;;17.40;93.70;;;;;;4951735;28;20211;-66
2021/08/27 05:55:14;;;;;;;6.87;1.00;;;17.40;93.30;;;;;;4954173;28;20210;-68
2021/08/27 05:57:41;;;;;;;2.20;1.10;;;17.40;93.60;;;;;;4952368;28;20184;-71
2021/08/27 06:00:21;;;;;;;4.30;1.00;;;17.30;93.30;;;;;;4952888;28;20214;-66
2021/08/27 06:02:48;;;;;;;6.43;1.10;;;17.30;93.30;;;;;;4950333;28;20532;-67
2021/08/27 06:05:17;;;;;;;7.13;1.27;;;17.20;93.60;;;;;;4950674;28;20193;-71
2021/08/27 06:07:44;;;;;;;2.90;0.80;;;17.20;93.50;;;;;;4949984;28;20189;-74
2021/08/27 06:10:12;;;;;;;5.47;0.90;;;17.10;94.00;;;;;;4953958;28;20184;-66
2021/08/27 06:12:43;;;;;;;1.87;0.80;;;17.20;94.20;;;;;;4950650;28;20206;-65
2021/08/27 06:15:12;;;;;;;3.57;0.83;;;17.20;94.70;;;;;;4948764;28;20542;-68
2021/08/27 06:17:39;;;;;;;6.90;1.20;;;17.20;95.00;;;;;;4951438;28;20677;-66
2021/08/27 06:20:08;;;;;;;3.80;1.10;;;17.10;95.20;;;;;;4948919;28;20528;-66
2021/08/27 06:22:35;;;;;;;2.97;1.07;;;17.00;95.30;;;;;;4952404;28;20180;-66
2021/08/27 06:25:04;;;;;;;2.90;0.87;;;17.00;95.70;;;;;;4942931;28;20185;-75
2021/08/27 06:27:31;;;;;;;4.87;1.30;;;17.00;96.20;;;;;;4952267;28;20220;-67
2021/08/27 06:30:00;;;;;;;5.93;1.27;;;16.90;96.70;;;;;;4952896;29;20248;-71
2021/08/27 06:32:28;;;;;;;3.77;1.10;;;16.90;96.80;;;;;;4942469;29;20225;-74
2021/08/27 06:34:55;;;;;;;2.10;0.77;;;16.80;97.30;;;;;;4954856;28;20180;-72
2021/08/27 06:38:21;;;;;;;2.53;0.73;;;16.80;98.00;;;;;;4954719;28;20199;-73
2021/08/27 06:40:14;;;;;;;2.40;1.00;;;16.70;98.20;;;;;;4946296;29;20301;-73
2021/08/27 06:42:44;;;;;;;2.70;0.87;;;16.60;98.80;;;;;;4954104;29;20267;-71
2021/08/27 06:45:12;;;;;;;6.37;1.00;;;16.70;99.60;;;;;;4953863;28;20260;-71
2021/08/27 06:47:40;;;;;;;3.63;0.60;;;16.60;99.90;;;;;;4955930;29;20193;-70
2021/08/27 06:50:09;;;;;;;2.53;0.77;;;16.40;99.90;;;;;;4955402;29;20187;-68
2021/08/27 06:52:37;;;;;;;2.37;1.00;;;16.40;99.90;;;;;;4954712;28;20273;-68
2021/08/27 06:55:05;;;;;;;1.70;0.90;;;16.30;99.90;;;;;;4956199;28;20194;-66
2021/08/27 06:57:33;;;;;;;2.63;0.83;;;16.20;99.90;;;;;;4952359;28;20330;-73
2021/08/27 07:00:01;;;;;;;4.67;0.87;;;16.10;99.90;;;;;;4956191;29;20215;-65
2021/08/27 07:02:29;;;;;;;4.37;0.90;;;16.00;99.90;;;;;;4955519;29;20195;-67
2021/08/27 07:04:57;;;;;;;3.50;1.57;;;15.90;99.90;;;;;;4945700;28;20268;-67
2021/08/27 07:07:24;;;;;;;2.40;1.50;;;15.80;99.90;;;;;;4951240;28;20267;-73
2021/08/27 07:09:51;;;;;;;5.20;1.17;;;15.80;99.90;;;;;;4946331;28;20274;-65
2021/08/27 07:12:19;;;;;;;4.40;1.53;;;15.70;99.90;;;;;;4947607;28;20215;-65
2021/08/27 07:14:50;;;;;;;2.23;1.13;;;15.70;99.90;;;;;;4953415;28;20267;-65
2021/08/27 07:17:19;;;;;;;5.73;1.30;;;15.70;99.90;;;;;;4952214;29;20546;-64
2021/08/27 07:19:48;;;;;;;5.83;1.73;;;15.70;99.90;;;;;;4944873;29;20206;-70
2021/08/27 07:22:15;;;;;;;4.30;1.50;;;15.60;99.90;;;;;;4946495;29;20190;-69
2021/08/27 07:24:43;;;;;;;2.77;1.30;;;15.60;99.90;;;;;;4945388;29;20247;-67
2021/08/27 07:27:10;;;;;;;2.53;1.10;;;15.40;99.90;;;;;;4940183;28;20191;-65
2021/08/27 07:29:38;;;;;;;7.30;1.67;;;15.40;99.90;;;;;;4947907;28;20184;-73
2021/08/27 07:32:11;;;;;;;5.27;1.97;;;15.40;99.90;;;;;;4949508;29;20267;-66
2021/08/27 07:34:42;;;;;;;3.07;1.33;;;15.30;99.90;;;;;;4955242;28;20250;-72
2021/08/27 07:37:17;;;;;;;7.07;1.90;;;15.30;99.90;;;;;;4948447;29;20646;-71
2021/08/27 07:39:45;;;;;;;15.20;1.83;;;15.30;99.90;;;;;;4957347;28;20209;-68
2021/08/27 07:42:12;;;;;;;7.17;1.50;;;15.20;99.90;;;;;;4954847;28;20719;-73
2021/08/27 07:48:03;;;;;;;10.90;1.80;;;15.10;99.90;;;;;;4955111;28;20224;-69
2021/08/27 07:50:31;;;;;;;5.63;1.97;;;15.10;99.90;;;;;;4950532;28;20262;-72
2021/08/27 07:52:58;;;;;;;7.60;2.17;;;15.10;99.90;;;;;;4954887;29;20276;-71
2021/08/27 07:55:26;;;;;;;4.30;1.60;;;15.10;99.90;;;;;;4955016;29;20183;-71
2021/08/27 07:57:53;;;;;;;10.13;1.80;;;15.00;99.90;;;;;;4953776;28;20192;-69
2021/08/27 08:00:20;;;;;;;8.40;2.30;;;15.00;99.90;;;;;;4953400;28;20221;-72
2021/08/27 08:02:47;;;;;;;6.43;2.80;;;14.90;99.90;;;;;;4952333;28;20180;-68
2021/08/27 08:05:16;;;;;;;11.87;7.50;;;14.90;99.90;;;;;;4940132;28;20195;-67
2021/08/27 08:07:44;;;;;;;12.17;3.83;;;14.90;99.90;;;;;;4937956;28;20270;-68
2021/08/27 08:10:12;;;;;;;7.30;2.00;;;14.80;99.90;;;;;;4965124;28;20182;-69
2021/08/27 08:12:39;;;;;;;8.63;2.40;;;14.80;99.90;;;;;;4960356;28;20183;-69
2021/08/27 08:15:07;;;;;;;3.40;2.23;;;14.80;99.90;;;;;;4941429;28;20199;-67
2021/08/27 08:17:34;;;;;;;5.00;2.20;;;14.70;99.90;;;;;;4964048;28;20618;-71
2021/08/27 08:20:02;;;;;;;4.53;1.50;;;14.80;99.90;;;;;;4958859;28;20226;-72
2021/08/27 08:22:29;;;;;;;3.03;1.47;;;14.90;99.90;;;;;;4962103;28;20273;-71
2021/08/27 08:24:57;;;;;;;4.47;1.40;;;15.00;99.90;;;;;;4946421;28;20184;-72
2021/08/27 08:27:24;;;;;;;3.37;1.20;;;15.00;98.40;;;;;;4949227;28;20677;-65
2021/08/27 08:29:51;;;;;;;0.90;0.80;;;15.20;95.80;;;;;;4973485;28;20178;-67
2021/08/27 08:32:19;;;;;;;2.13;1.40;;;15.20;95.00;;;;;;4972479;28;20179;-66
2021/08/27 08:34:47;;;;;;;2.63;0.90;;;15.20;94.50;;;;;;4959852;28;20289;-69
2021/08/27 08:37:14;;;;;;;2.70;1.00;;;15.20;94.10;;;;;;4973880;28;20703;-72
2021/08/27 08:39:41;;;;;;;1.60;1.10;;;15.20;93.70;;;;;;4952140;28;20206;-70
2021/08/27 08:42:09;;;;;;;1.20;1.10;;;15.20;93.80;;;;;;4966983;28;20230;-64
2021/08/27 08:44:36;;;;;;;3.50;1.17;;;15.20;93.70;;;;;;4968225;28;20265;-64
2021/08/27 08:47:06;;;;;;;2.20;1.10;;;15.10;93.40;;;;;;4970196;28;20630;-64
2021/08/27 08:49:36;;;;;;;1.93;1.10;;;15.10;93.70;;;;;;4953775;28;20187;-65
2021/08/27 08:52:06;;;;;;;1.53;0.80;;;15.10;93.50;;;;;;4954343;28;20176;-65
2021/08/27 08:54:34;;;;;;;1.90;0.87;;;15.10;93.50;;;;;;4953845;28;20175;-66
2021/08/27 08:57:02;;;;;;;0.93;0.70;;;15.10;93.70;;;;;;4952888;28;20180;-65
2021/08/27 08:59:35;;;;;;;2.27;0.80;;;15.00;93.70;;;;;;4957504;28;20242;-64
2021/08/27 09:02:04;;;;;;;2.00;0.70;;;15.00;93.90;;;;;;4956966;28;20183;-67
2021/08/27 09:04:31;;;;;;;2.13;0.90;;;15.00;94.00;;;;;;4950456;28;20180;-64
2021/08/27 09:06:59;;;;;;;1.43;0.90;;;14.90;94.10;;;;;;4950865;28;20187;-65
2021/08/27 09:09:33;;;;;;;1.77;1.00;;;14.90;94.10;;;;;;4955753;28;20539;-67
2021/08/27 09:12:14;;;;;;;1.13;0.90;;;14.80;94.30;;;;;;4952402;28;20202;-64
2021/08/27 09:14:43;;;;;;;2.67;1.20;;;14.70;94.20;;;;;;4954122;28;21215;-70
2021/08/27 09:17:10;;;;;;;2.27;0.93;;;14.70;94.10;;;;;;4953753;28;20203;-66
2021/08/27 09:19:53;;;;;;;1.47;1.20;;;14.70;94.40;;;;;;4954999;28;20264;-66
2021/08/27 09:22:21;;;;;;;1.60;1.30;;;14.60;94.40;;;;;;4954528;28;20597;-65
2021/08/27 09:25:09;;;;;;;2.50;1.10;;;14.60;94.20;;;;;;4955125;29;20278;-66
2021/08/27 09:27:59;;;;;;;0.80;0.70;;;14.70;94.20;;;;;;4949315;28;20183;-66
2021/08/27 09:30:27;;;;;;;1.20;0.77;;;14.60;94.20;;;;;;4957427;28;20262;-66
2021/08/27 09:32:55;;;;;;;3.30;1.23;;;14.60;94.50;;;;;;4954245;28;20269;-70
2021/08/27 09:35:24;;;;;;;0.90;0.80;;;14.50;94.60;;;;;;4956749;28;20206;-66
2021/08/27 09:37:55;;;;;;;1.50;1.20;;;14.50;94.50;;;;;;4953145;28;20194;-66
2021/08/27 09:40:28;;;;;;;1.13;1.03;;;14.40;94.70;;;;;;4955483;28;20208;-71
2021/08/27 09:42:57;;;;;;;1.33;0.90;;;14.40;94.80;;;;;;4966628;28;20695;-71
2021/08/27 09:45:44;;;;;;;1.60;1.00;;;14.30;95.00;;;;;;4963186;28;20270;-69
2021/08/27 09:48:13;;;;;;;2.13;0.90;;;14.30;95.10;;;;;;4957816;28;20187;-67
2021/08/27 09:50:49;;;;;;;1.90;1.00;;;14.20;95.20;;;;;;4949916;28;20679;-72
2021/08/27 09:53:19;;;;;;;2.50;1.23;;;14.20;95.40;;;;;;4950550;29;20191;-73
2021/08/27 09:55:57;;;;;;;2.10;1.17;;;14.20;95.40;;;;;;4956909;28;20191;-72
2021/08/27 09:58:25;;;;;;;1.20;1.00;;;14.10;95.40;;;;;;4947617;28;20187;-72
2021/08/27 10:01:04;;;;;;;1.13;1.00;;;14.10;95.50;;;;;;4954730;28;20748;-70
2021/08/27 10:03:32;;;;;;;0.93;0.83;;;14.00;95.70;;;;;;4951794;28;20187;-71
2021/08/27 10:06:03;;;;;;;1.47;1.00;;;14.00;95.70;;;;;;4947049;28;20195;-70
2021/08/27 10:08:37;;;;;;;1.13;0.87;;;14.00;95.80;;;;;;4950515;29;20697;-76
2021/08/27 10:11:24;;;;;;;2.77;1.00;;;13.90;96.00;;;;;;4947222;29;20642;-72
2021/08/27 10:13:53;;;;;;;1.43;0.73;;;13.90;96.10;;;;;;4952081;29;20594;-70
2021/08/27 10:16:22;;;;;;;2.67;1.00;;;13.90;96.30;;;;;;4953275;28;20202;-73
2021/08/27 10:18:50;;;;;;;3.47;1.03;;;13.80;96.40;;;;;;4949823;29;20175;-71
2021/08/27 10:21:17;;;;;;;1.40;1.10;;;13.80;96.40;;;;;;4924624;29;20220;-67
2021/08/27 10:23:45;;;;;;;1.90;1.10;;;13.70;96.50;;;;;;4954056;29;20656;-71
2021/08/27 10:26:20;;;;;;;3.20;1.43;;;13.70;96.70;;;;;;4951442;29;20672;-67
2021/08/27 10:28:50;;;;;;;2.33;1.30;;;13.60;96.80;;;;;;4952870;29;20221;-70
2021/08/27 10:31:17;;;;;;;2.17;1.20;;;13.60;96.80;;;;;;4947095;28;20651;-71
2021/08/27 10:33:45;;;;;;;1.67;1.00;;;13.60;96.70;;;;;;4947077;28;20246;-69
2021/08/27 10:36:32;;;;;;;0.97;0.80;;;13.60;96.70;;;;;;4951769;28;20187;-68
2021/08/27 10:39:01;;;;;;;1.17;0.87;;;13.60;96.50;;;;;;4951622;28;20183;-67
2021/08/27 10:41:36;;;;;;;1.30;0.67;;;13.70;96.40;;;;;;4955924;28;20242;-68
2021/08/27 10:44:07;;;;;;;2.20;1.03;;;13.70;96.40;;;;;;4951330;28;20195;-65
2021/08/27 10:46:46;;;;;;;1.67;0.70;;;13.60;96.30;;;;;;4955423;29;20206;-66
2021/08/27 10:49:21;;;;;;;1.00;0.90;;;13.70;96.10;;;;;;4943759;29;20685;-66
2021/08/27 10:51:55;;;;;;;1.57;0.93;;;13.80;96.00;;;;;;4948951;28;20233;-71
2021/08/27 10:54:23;;;;;;;3.70;0.90;;;13.70;96.10;;;;;;4946998;29;20230;-74
2021/08/27 10:56:54;;;;;;;0.80;0.70;;;13.70;96.20;;;;;;4955622;29;20195;-66
2021/08/27 10:59:23;;;;;;;1.40;0.90;;;13.60;96.30;;;;;;4956191;29;20183;-68
2021/08/27 11:02:08;;;;;;;1.90;1.00;;;13.60;96.40;;;;;;4953806;28;20210;-66
2021/08/27 11:04:42;;;;;;;1.53;1.00;;;13.50;96.80;;;;;;4948769;28;20233;-68
2021/08/27 11:07:28;;;;;;;2.17;0.97;;;13.50;96.60;;;;;;4954955;29;20300;-69
2021/08/27 11:10:14;;;;;;;2.93;1.10;;;13.40;96.60;;;;;;4941695;29;20540;-66
2021/08/27 11:12:42;;;;;;;2.37;1.10;;;13.40;96.80;;;;;;4946027;29;20550;-70
2021/08/27 11:15:29;;;;;;;2.50;1.20;;;13.30;97.00;;;;;;4955884;29;20198;-70
2021/08/27 11:18:18;;;;;;;2.53;1.60;;;13.20;97.40;;;;;;4955066;29;20242;-68
2021/08/27 11:20:45;;;;;;;3.33;1.70;;;13.20;97.30;;;;;;4940789;29;20226;-71
2021/08/27 11:23:14;;;;;;;2.43;1.70;;;13.10;97.40;;;;;;4944027;28;20180;-71
2021/08/27 11:26:08;;;;;;;2.00;1.67;;;13.10;97.50;;;;;;4943180;29;20564;-68
2021/08/27 11:28:36;;;;;;;3.53;2.37;;;13.00;97.80;;;;;;4951804;29;20188;-71
2021/08/27 11:31:08;;;;;;;2.37;1.60;;;12.90;97.90;;;;;;4955443;29;20588;-71
2021/08/27 11:33:45;;;;;;;3.43;1.40;;;12.90;97.90;;;;;;4952351;28;20183;-72
2021/08/27 11:36:14;;;;;;;4.43;1.53;;;12.80;98.10;;;;;;4944046;28;20226;-72
2021/08/27 11:38:42;;;;;;;4.57;1.47;;;12.80;98.20;;;;;;4947577;28;20214;-68
2021/08/27 11:41:10;;;;;;;2.93;1.10;;;12.80;98.00;;;;;;4947015;28;20230;-71
2021/08/27 11:43:48;;;;;;;5.70;1.37;;;12.80;97.80;;;;;;4951204;28;20327;-70
2021/08/27 11:46:25;;;;;;;2.83;1.40;;;12.80;97.80;;;;;;4954901;29;20224;-66
2021/08/27 11:49:15;;;;;;;1.60;1.13;;;12.80;97.70;;;;;;4953676;29;20264;-67
2021/08/27 11:52:19;;;;;;;4.00;1.43;;;12.80;97.80;;;;;;4953261;28;20298;-68
2021/08/27 11:54:47;;;;;;;2.37;1.33;;;12.70;98.00;;;;;;4947835;28;20195;-68
2021/08/27 11:57:17;;;;;;;2.73;1.20;;;12.70;98.00;;;;;;4954577;29;20548;-67
2021/08/27 11:59:45;;;;;;;1.90;1.20;;;12.70;98.20;;;;;;4954978;29;20233;-68
2021/08/27 12:02:21;;;;;;;1.90;1.30;;;12.60;98.10;;;;;;4946594;28;20198;-71
2021/08/27 12:05:03;;;;;;;2.57;1.30;;;12.60;98.40;;;;;;4954569;28;20181;-67
2021/08/27 12:07:31;;;;;;;2.80;1.60;;;12.60;98.40;;;;;;4953275;29;20649;-67
2021/08/27 12:10:10;;;;;;;2.13;1.20;;;12.50;98.60;;;;;;4947077;29;20285;-70
2021/08/27 12:12:39;;;;;;;4.33;1.70;;;12.50;98.60;;;;;;4962087;28;20245;-69
2021/08/27 12:15:13;;;;;;;4.53;1.93;;;12.40;98.90;;;;;;4959224;28;20273;-68
2021/08/27 12:18:01;;;;;;;3.33;1.33;;;12.40;99.00;;;;;;4964930;28;20187;-68
2021/08/27 12:20:38;;;;;;;2.77;1.60;;;12.30;99.10;;;;;;4969584;28;20218;-72
2021/08/27 12:23:15;;;;;;;2.00;1.50;;;12.40;99.10;;;;;;4954862;28;20274;-67
2021/08/27 12:25:46;;;;;;;8.00;1.80;;;12.40;99.00;;;;;;4971565;28;20525;-68
2021/08/27 12:28:16;;;;;;;4.20;1.43;;;12.40;98.90;;;;;;4962907;28;20547;-66
2021/08/27 12:30:53;;;;;;;2.30;1.20;;;12.40;99.20;;;;;;4968628;28;20351;-71
2021/08/27 12:33:21;;;;;;;4.67;1.20;;;12.30;99.20;;;;;;4957593;28;20187;-67
2021/08/27 12:35:49;;;;;;;3.93;1.80;;;12.20;99.10;;;;;;4960029;28;20587;-69
2021/08/27 12:38:18;;;;;;;3.30;2.07;;;12.20;99.20;;;;;;4974097;28;20197;-70
2021/08/27 12:40:45;;;;;;;4.00;1.90;;;12.20;99.40;;;;;;4973595;28;20280;-68
2021/08/27 12:43:16;;;;;;;4.07;2.17;;;12.20;99.50;;;;;;4973553;28;20276;-69
2021/08/27 12:45:45;;;;;;;3.23;1.50;;;12.20;99.80;;;;;;4970624;28;20197;-72
2021/08/27 12:48:31;;;;;;;3.17;1.30;;;12.10;99.90;;;;;;4961053;28;20193;-70
2021/08/27 12:51:04;;;;;;;2.47;1.70;;;12.10;99.90;;;;;;4954352;28;20241;-71
2021/08/27 12:53:38;;;;;;;4.80;2.20;;;12.00;99.90;;;;;;4953880;28;20223;-73
2021/08/27 12:56:17;;;;;;;3.17;1.60;;;12.00;99.90;;;;;;4954229;28;20194;-71
2021/08/27 12:58:50;;;;;;;3.63;1.77;;;12.00;99.90;;;;;;4950498;28;20202;-68
2021/08/27 13:01:26;;;;;;;3.37;1.70;;;11.90;99.90;;;;;;4954012;28;20222;-68
2021/08/27 13:03:59;;;;;;;2.97;1.70;;;11.90;99.90;;;;;;4952401;28;20194;-69
2021/08/27 13:06:40;;;;;;;2.73;1.47;;;11.90;99.90;;;;;;4950316;28;20188;-72
2021/08/27 13:09:12;;;;;;;4.50;1.73;;;11.80;99.90;;;;;;4939528;28;20192;-65